createdAt,value
2017-10-16T00:01:38.849Z,11.90
2017-10-16T00:04:05.200Z,12.00
2017-10-16T00:06:33.036Z,11.90
2017-10-16T00:08:59.564Z,11.90
2017-10-16T00:11:26.639Z,11.90
2017-10-16T00:13:52.992Z,11.90
2017-10-16T00:16:19.311Z,11.90
2017-10-16T00:18:45.650Z,11.70
2017-10-16T00:21:11.967Z,11.80
2017-10-16T00:23:38.321Z,11.80
2017-10-16T00:26:04.669Z,11.80
2017-10-16T00:28:31.065Z,11.80
2017-10-16T00:30:57.412Z,11.70
2017-10-16T00:33:23.734Z,11.80
2017-10-16T00:35:50.091Z,11.60
2017-10-16T00:38:16.444Z,11.70
2017-10-16T00:40:42.793Z,11.70
2017-10-16T00:43:09.145Z,11.70
2017-10-16T00:45:35.513Z,11.70
2017-10-16T00:48:01.964Z,11.60
2017-10-16T00:50:29.057Z,11.60
2017-10-16T00:52:55.404Z,11.40
2017-10-16T00:55:21.747Z,11.60
2017-10-16T00:57:48.161Z,11.60
2017-10-16T01:00:15.277Z,11.70
2017-10-16T01:02:41.658Z,11.60
2017-10-16T01:05:08.007Z,11.70
2017-10-16T01:07:35.120Z,11.70
2017-10-16T01:10:01.718Z,11.70
2017-10-16T01:12:28.829Z,11.70
2017-10-16T01:14:55.153Z,11.70
2017-10-16T01:17:21.527Z,11.70
2017-10-16T01:19:47.947Z,11.70
2017-10-16T01:22:14.365Z,11.70
2017-10-16T01:24:41.485Z,11.70
2017-10-16T01:27:07.892Z,11.60
2017-10-16T01:29:34.293Z,11.70
2017-10-16T01:32:01.711Z,11.60
2017-10-16T01:34:28.143Z,11.60
2017-10-16T01:36:54.517Z,11.70
2017-10-16T01:39:20.900Z,11.70
2017-10-16T01:41:48.024Z,11.70
2017-10-16T01:44:14.405Z,11.70
2017-10-16T01:46:41.543Z,11.60
2017-10-16T01:49:07.961Z,11.60
2017-10-16T01:51:34.361Z,11.60
2017-10-16T01:54:00.761Z,11.50
2017-10-16T01:56:27.197Z,11.50
2017-10-16T01:58:53.554Z,11.60
2017-10-16T02:01:19.918Z,11.60
2017-10-16T02:03:46.237Z,11.60
2017-10-16T02:06:12.630Z,11.60
2017-10-16T02:08:39.720Z,11.60
2017-10-16T02:11:06.165Z,11.50
2017-10-16T02:13:32.490Z,11.50
2017-10-16T02:15:58.815Z,11.50
2017-10-16T02:18:25.149Z,11.50
2017-10-16T02:20:52.232Z,11.60
2017-10-16T02:23:18.585Z,11.60
2017-10-16T02:25:44.937Z,11.60
2017-10-16T02:28:11.289Z,11.60
2017-10-16T02:30:37.645Z,11.60
2017-10-16T02:33:04.772Z,11.60
2017-10-16T02:35:31.108Z,11.60
2017-10-16T02:37:57.469Z,11.70
2017-10-16T02:40:23.789Z,11.70
2017-10-16T02:42:50.164Z,11.70
2017-10-16T02:45:16.513Z,11.70
2017-10-16T02:47:42.841Z,11.70
2017-10-16T02:50:09.278Z,11.70
2017-10-16T02:52:35.645Z,11.70
2017-10-16T02:55:02.014Z,11.70
2017-10-16T02:57:29.101Z,11.70
2017-10-16T02:59:55.452Z,11.70
2017-10-16T03:02:21.781Z,11.70
2017-10-16T03:04:48.168Z,11.80
2017-10-16T03:07:14.540Z,11.90
2017-10-16T03:09:40.863Z,11.90
2017-10-16T03:12:07.204Z,11.90
2017-10-16T03:14:33.526Z,11.90
2017-10-16T03:16:59.900Z,11.90
2017-10-16T03:19:26.236Z,11.90
2017-10-16T03:21:52.581Z,11.90
2017-10-16T03:24:18.896Z,12.00
2017-10-16T03:26:45.226Z,12.00
2017-10-16T03:29:11.641Z,12.00
2017-10-16T03:31:38.705Z,12.00
2017-10-16T03:34:05.059Z,12.00
2017-10-16T03:36:31.421Z,12.10
2017-10-16T03:38:57.822Z,12.10
2017-10-16T03:41:24.906Z,12.10
2017-10-16T03:43:51.984Z,12.00
2017-10-16T03:46:19.148Z,12.00
2017-10-16T03:48:45.546Z,12.00
2017-10-16T03:51:12.661Z,12.10
2017-10-16T03:53:39.040Z,12.00
2017-10-16T03:56:06.129Z,12.10
2017-10-16T03:58:32.492Z,12.10
2017-10-16T04:00:58.849Z,12.00
2017-10-16T04:03:25.209Z,12.20
2017-10-16T04:05:51.597Z,12.20
2017-10-16T04:08:17.957Z,12.30
2017-10-16T04:10:44.325Z,12.10
2017-10-16T04:13:10.705Z,12.40
2017-10-16T04:15:37.028Z,12.30
2017-10-16T04:18:03.379Z,12.50
2017-10-16T04:20:30.505Z,12.50
2017-10-16T04:22:56.833Z,12.50
2017-10-16T04:25:23.194Z,12.60
2017-10-16T04:27:49.516Z,12.50
2017-10-16T04:30:15.885Z,12.50
2017-10-16T04:32:42.197Z,12.50
2017-10-16T04:35:08.557Z,12.50
2017-10-16T04:37:34.871Z,12.50
2017-10-16T04:40:01.949Z,12.40
2017-10-16T04:42:28.309Z,12.40
2017-10-16T04:44:54.641Z,12.40
2017-10-16T04:47:20.990Z,12.50
2017-10-16T04:49:47.344Z,12.50
2017-10-16T04:52:13.693Z,12.50
2017-10-16T04:54:40.037Z,12.40
2017-10-16T04:57:06.392Z,12.50
2017-10-16T04:59:32.761Z,12.50
2017-10-16T05:01:59.849Z,12.50
2017-10-16T05:04:26.262Z,12.50
2017-10-16T05:06:53.453Z,12.50
2017-10-16T05:09:19.876Z,12.50
2017-10-16T05:11:46.208Z,12.30
2017-10-16T05:14:13.344Z,12.50
2017-10-16T05:16:39.689Z,12.60
2017-10-16T05:19:06.053Z,12.60
2017-10-16T05:21:32.433Z,12.70
2017-10-16T05:23:58.790Z,12.70
2017-10-16T05:26:25.358Z,12.70
2017-10-16T05:28:51.728Z,12.60
2017-10-16T05:31:18.265Z,12.70
2017-10-16T05:33:44.645Z,12.70
2017-10-16T05:36:11.845Z,12.70
2017-10-16T05:38:38.268Z,12.60
2017-10-16T05:41:04.734Z,12.70
2017-10-16T05:43:31.989Z,12.60
2017-10-16T05:46:00.357Z,12.60
2017-10-16T05:48:26.847Z,12.60
2017-10-16T05:50:53.345Z,12.60
2017-10-16T05:53:20.511Z,12.80
2017-10-16T05:55:47.736Z,12.90
2017-10-16T05:58:14.973Z,12.90
2017-10-16T06:00:41.433Z,12.90
2017-10-16T06:03:07.795Z,12.90
2017-10-16T06:05:34.301Z,12.90
2017-10-16T06:08:00.925Z,13.00
2017-10-16T06:10:27.315Z,13.10
2017-10-16T06:12:53.761Z,13.00
2017-10-16T06:15:20.218Z,13.00
2017-10-16T06:17:50.185Z,12.90
2017-10-16T06:20:16.617Z,12.80
2017-10-16T06:22:43.121Z,12.80
2017-10-16T06:25:09.552Z,12.80
2017-10-16T06:27:35.989Z,12.80
2017-10-16T06:30:02.393Z,12.80
2017-10-16T06:32:28.797Z,12.70
2017-10-16T06:34:57.043Z,12.90
2017-10-16T06:37:23.414Z,12.90
2017-10-16T06:39:49.828Z,12.90
2017-10-16T06:42:16.209Z,13.00
2017-10-16T06:44:42.612Z,13.00
2017-10-16T06:47:09.030Z,13.10
2017-10-16T06:49:35.427Z,13.10
2017-10-16T06:52:01.900Z,13.10
2017-10-16T06:54:28.289Z,13.10
2017-10-16T06:56:54.692Z,13.00
2017-10-16T06:59:21.113Z,12.90
2017-10-16T07:01:47.683Z,12.90
2017-10-16T07:04:15.582Z,12.90
2017-10-16T07:06:42.106Z,12.90
2017-10-16T07:09:08.536Z,13.00
2017-10-16T07:11:34.945Z,13.10
2017-10-16T07:14:02.125Z,13.20
2017-10-16T07:16:29.253Z,13.30
2017-10-16T07:18:55.716Z,13.30
2017-10-16T07:21:22.887Z,13.60
2017-10-16T07:23:50.095Z,13.70
2017-10-16T07:26:17.226Z,13.80
2017-10-16T07:28:43.657Z,13.80
2017-10-16T07:31:10.214Z,14.10
2017-10-16T07:33:36.688Z,14.20
2017-10-16T07:36:03.150Z,14.30
2017-10-16T07:38:30.329Z,14.50
2017-10-16T07:40:56.893Z,14.50
2017-10-16T07:43:23.322Z,14.60
2017-10-16T07:45:49.835Z,14.70
2017-10-16T07:48:16.262Z,14.80
2017-10-16T07:50:42.803Z,15.00
2017-10-16T07:53:09.186Z,15.30
2017-10-16T07:55:35.582Z,15.60
2017-10-16T07:58:02.009Z,16.00
2017-10-16T08:00:28.421Z,16.10
2017-10-16T08:02:55.618Z,16.40
2017-10-16T08:05:22.083Z,16.40
2017-10-16T08:07:48.481Z,16.60
2017-10-16T08:10:14.861Z,16.80
2017-10-16T08:12:42.022Z,17.20
2017-10-16T08:15:08.424Z,17.10
2017-10-16T08:17:34.858Z,17.40
2017-10-16T08:20:01.389Z,17.10
2017-10-16T08:22:27.825Z,17.90
2017-10-16T08:24:54.294Z,18.00
2017-10-16T08:27:20.869Z,18.20
2017-10-16T08:29:47.345Z,18.50
2017-10-16T08:32:13.744Z,18.50
2017-10-16T08:34:40.212Z,18.60
2017-10-16T08:37:07.464Z,19.20
2017-10-16T08:39:34.681Z,19.30
2017-10-16T08:42:01.374Z,19.30
2017-10-16T08:44:28.639Z,19.40
2017-10-16T08:46:55.079Z,19.40
2017-10-16T08:49:21.572Z,19.70
2017-10-16T08:51:48.819Z,20.10
2017-10-16T08:54:16.165Z,20.40
2017-10-16T08:56:42.677Z,20.30
2017-10-16T08:59:09.193Z,20.50
2017-10-16T09:01:35.657Z,20.60
2017-10-16T09:04:02.158Z,20.70
2017-10-16T09:06:28.815Z,20.90
2017-10-16T09:08:55.319Z,20.80
2017-10-16T09:11:21.999Z,21.00
2017-10-16T09:13:48.420Z,21.10
2017-10-16T09:16:14.921Z,21.30
2017-10-16T09:18:41.366Z,21.50
2017-10-16T09:21:08.548Z,21.80
2017-10-16T09:23:35.074Z,21.80
2017-10-16T09:26:01.611Z,22.10
2017-10-16T09:28:28.200Z,22.30
2017-10-16T09:30:54.851Z,22.40
2017-10-16T09:33:21.336Z,22.70
2017-10-16T09:35:47.827Z,23.10
2017-10-16T09:38:14.300Z,23.10
2017-10-16T09:40:41.768Z,23.20
2017-10-16T09:43:08.999Z,23.50
2017-10-16T09:45:35.505Z,23.50
2017-10-16T09:48:02.120Z,23.50
2017-10-16T09:50:29.360Z,23.50
2017-10-16T09:52:55.816Z,23.50
2017-10-16T09:55:22.300Z,23.60
2017-10-16T09:57:49.501Z,23.90
2017-10-16T10:00:16.734Z,24.20
2017-10-16T10:02:43.259Z,24.20
2017-10-16T10:05:09.806Z,24.10
2017-10-16T10:07:36.394Z,24.00
2017-10-16T10:10:03.605Z,24.20
2017-10-16T10:12:30.289Z,24.50
2017-10-16T10:14:56.770Z,24.40
2017-10-16T10:17:23.274Z,24.30
2017-10-16T10:19:49.722Z,24.20
2017-10-16T10:22:16.222Z,24.50
2017-10-16T10:24:43.394Z,24.60
2017-10-16T10:27:09.986Z,24.50
2017-10-16T10:29:36.480Z,24.60
2017-10-16T10:32:03.033Z,24.50
2017-10-16T10:34:30.358Z,24.10
2017-10-16T10:36:57.237Z,24.10
2017-10-16T10:39:25.253Z,24.00
2017-10-16T10:41:52.477Z,24.00
2017-10-16T10:44:18.954Z,24.00
2017-10-16T10:46:45.405Z,23.90
2017-10-16T10:49:11.853Z,23.80
2017-10-16T10:51:38.308Z,23.80
2017-10-16T10:54:04.753Z,23.90
2017-10-16T10:56:31.213Z,23.70
2017-10-16T10:58:57.674Z,23.60
2017-10-16T11:01:24.108Z,23.70
2017-10-16T11:03:50.561Z,23.70
2017-10-16T11:06:16.982Z,23.60
2017-10-16T11:08:44.250Z,23.50
2017-10-16T11:11:10.780Z,23.50
2017-10-16T11:13:37.234Z,23.60
2017-10-16T11:16:03.748Z,23.60
2017-10-16T11:18:30.909Z,23.80
2017-10-16T11:20:58.165Z,23.90
2017-10-16T11:23:24.581Z,23.80
2017-10-16T11:25:51.091Z,23.90
2017-10-16T11:28:17.477Z,23.90
2017-10-16T11:30:44.111Z,23.90
2017-10-16T11:33:11.285Z,23.90
2017-10-16T11:35:37.750Z,24.00
2017-10-16T11:38:04.207Z,24.00
2017-10-16T11:40:31.384Z,24.00
2017-10-16T11:42:57.852Z,24.00
2017-10-16T11:45:24.273Z,24.10
2017-10-16T11:47:50.761Z,24.10
2017-10-16T11:50:17.192Z,24.10
2017-10-16T11:52:44.411Z,24.10
2017-10-16T11:55:11.620Z,24.00
2017-10-16T11:57:40.721Z,24.10
2017-10-16T12:00:07.895Z,24.00
2017-10-16T12:02:35.070Z,24.10
2017-10-16T12:05:01.513Z,23.90
2017-10-16T12:07:28.686Z,24.30
2017-10-16T12:09:55.156Z,24.30
2017-10-16T12:12:21.622Z,24.30
2017-10-16T12:14:48.989Z,24.30
2017-10-16T12:17:15.488Z,24.30
2017-10-16T12:19:41.984Z,24.40
2017-10-16T12:22:09.133Z,24.40
2017-10-16T12:24:35.709Z,24.40
2017-10-16T12:27:02.926Z,24.50
2017-10-16T12:29:31.013Z,24.50
2017-10-16T12:31:57.489Z,24.50
2017-10-16T12:34:24.709Z,24.50
2017-10-16T12:36:51.131Z,24.50
2017-10-16T12:39:18.318Z,24.50
2017-10-16T12:41:44.821Z,24.50
2017-10-16T12:44:11.229Z,24.50
2017-10-16T12:46:38.383Z,24.50
2017-10-16T12:49:05.547Z,24.60
2017-10-16T12:51:31.967Z,24.50
2017-10-16T12:53:58.380Z,24.60
2017-10-16T12:56:25.664Z,24.70
2017-10-16T12:58:52.836Z,24.80
2017-10-16T13:01:19.343Z,24.80
2017-10-16T13:03:45.760Z,24.80
2017-10-16T13:06:12.182Z,24.90
2017-10-16T13:08:39.327Z,24.80
2017-10-16T13:11:05.705Z,24.80
2017-10-16T13:13:32.197Z,24.80
2017-10-16T13:15:58.602Z,25.00
2017-10-16T13:18:25.095Z,25.00
2017-10-16T13:20:52.302Z,25.00
2017-10-16T13:23:18.781Z,24.90
2017-10-16T13:25:45.269Z,24.90
2017-10-16T13:28:11.718Z,24.90
2017-10-16T13:30:38.193Z,24.90
2017-10-16T13:33:05.410Z,24.80
2017-10-16T13:35:32.813Z,24.90
2017-10-16T13:37:59.335Z,24.80
2017-10-16T13:40:25.826Z,24.80
2017-10-16T13:42:52.249Z,24.80
2017-10-16T13:45:19.438Z,24.70
2017-10-16T13:47:46.625Z,24.70
2017-10-16T13:50:13.068Z,24.60
2017-10-16T13:52:40.205Z,24.60
2017-10-16T13:55:06.681Z,24.60
2017-10-16T13:57:33.891Z,24.60
2017-10-16T14:00:00.398Z,24.60
2017-10-16T14:02:27.594Z,24.60
2017-10-16T14:04:54.187Z,24.50
2017-10-16T14:07:20.689Z,24.50
2017-10-16T14:09:47.961Z,24.30
2017-10-16T14:12:15.252Z,24.20
2017-10-16T14:14:41.708Z,24.20
2017-10-16T14:17:08.192Z,24.20
2017-10-16T14:19:34.638Z,24.20
2017-10-16T14:22:01.106Z,24.20
2017-10-16T14:24:27.620Z,24.20
2017-10-16T14:26:54.101Z,24.10
2017-10-16T14:29:21.400Z,24.10
2017-10-16T14:31:47.857Z,24.10
2017-10-16T14:34:14.325Z,24.00
2017-10-16T14:36:42.065Z,24.00
2017-10-16T14:39:08.544Z,23.90
2017-10-16T14:41:34.975Z,23.90
2017-10-16T14:44:01.413Z,23.80
2017-10-16T14:46:28.330Z,23.70
2017-10-16T14:48:54.905Z,23.50
2017-10-16T14:51:21.349Z,23.60
2017-10-16T14:53:48.561Z,23.50
2017-10-16T14:56:15.065Z,23.50
2017-10-16T14:58:43.261Z,23.40
2017-10-16T15:01:13.565Z,23.20
2017-10-16T15:03:39.966Z,23.20
2017-10-16T15:06:07.200Z,23.00
2017-10-16T15:08:34.512Z,23.00
2017-10-16T15:11:01.111Z,23.00
2017-10-16T15:13:27.613Z,22.90
2017-10-16T15:15:54.322Z,22.90
2017-10-16T15:18:21.589Z,22.80
2017-10-16T15:20:49.045Z,22.60
2017-10-16T15:23:16.265Z,22.50
2017-10-16T15:25:42.764Z,22.50
2017-10-16T15:28:09.198Z,22.40
2017-10-16T15:30:35.653Z,22.40
2017-10-16T15:33:02.133Z,22.40
2017-10-16T15:35:28.596Z,22.20
2017-10-16T15:37:55.079Z,22.10
2017-10-16T15:40:21.558Z,22.00
2017-10-16T15:42:48.797Z,22.00
2017-10-16T15:45:15.298Z,22.00
2017-10-16T15:47:41.773Z,21.90
2017-10-16T15:50:08.230Z,21.90
2017-10-16T15:52:34.668Z,21.70
2017-10-16T15:55:01.144Z,21.60
2017-10-16T15:57:28.660Z,21.40
2017-10-16T15:59:55.110Z,21.30
2017-10-16T16:02:21.520Z,21.20
2017-10-16T16:04:48.028Z,21.10
2017-10-16T16:07:14.521Z,21.00
2017-10-16T16:09:42.407Z,20.70
2017-10-16T16:12:09.667Z,20.60
2017-10-16T16:14:36.114Z,20.60
2017-10-16T16:17:02.565Z,20.50
2017-10-16T16:19:28.975Z,20.40
2017-10-16T16:21:55.419Z,20.30
2017-10-16T16:24:21.837Z,20.30
2017-10-16T16:26:48.311Z,20.20
2017-10-16T16:29:14.791Z,20.10
2017-10-16T16:31:42.028Z,19.90
2017-10-16T16:34:08.493Z,19.90
2017-10-16T16:36:34.988Z,19.40
2017-10-16T16:39:01.434Z,19.70
2017-10-16T16:41:27.950Z,19.70
2017-10-16T16:43:54.393Z,19.60
2017-10-16T16:46:20.842Z,19.60
2017-10-16T16:48:47.373Z,19.60
2017-10-16T16:51:13.897Z,19.40
2017-10-16T16:53:41.377Z,19.30
2017-10-16T16:56:07.917Z,19.20
2017-10-16T16:58:35.235Z,19.20
2017-10-16T17:01:02.944Z,19.10
2017-10-16T17:03:30.130Z,19.00
2017-10-16T17:05:57.845Z,18.90
2017-10-16T17:08:25.063Z,18.80
2017-10-16T17:10:52.629Z,18.80
2017-10-16T17:13:19.932Z,18.70
2017-10-16T17:15:46.390Z,18.70
2017-10-16T17:18:12.782Z,18.50
2017-10-16T17:20:40.718Z,18.50
2017-10-16T17:23:07.168Z,18.50
2017-10-16T17:25:33.630Z,18.60
2017-10-16T17:28:00.137Z,18.60
2017-10-16T17:30:27.325Z,18.60
2017-10-16T17:32:53.809Z,18.60
2017-10-16T17:35:20.242Z,18.60
2017-10-16T17:37:46.685Z,18.60
2017-10-16T17:40:13.108Z,18.60
2017-10-16T17:42:40.288Z,18.50
2017-10-16T17:45:06.697Z,18.50
2017-10-16T17:47:33.116Z,18.50
2017-10-16T17:50:00.436Z,18.40
2017-10-16T17:52:26.857Z,18.30
2017-10-16T17:54:53.260Z,18.30
2017-10-16T17:57:19.665Z,18.30
2017-10-16T17:59:46.061Z,18.20
2017-10-16T18:02:12.426Z,18.10
2017-10-16T18:04:38.897Z,18.20
2017-10-16T18:07:05.311Z,18.20
2017-10-16T18:09:32.453Z,18.20
2017-10-16T18:11:59.656Z,18.30
2017-10-16T18:14:26.185Z,18.20
2017-10-16T18:16:53.334Z,18.20
2017-10-16T18:19:19.784Z,18.20
2017-10-16T18:21:46.949Z,18.20
2017-10-16T18:24:14.132Z,18.20
2017-10-16T18:26:40.595Z,18.20
2017-10-16T18:29:07.029Z,18.20
2017-10-16T18:31:33.429Z,18.20
2017-10-16T18:34:00.601Z,18.00
2017-10-16T18:36:27.016Z,17.80
2017-10-16T18:38:53.424Z,17.90
2017-10-16T18:41:19.856Z,17.80
2017-10-16T18:43:46.245Z,17.70
2017-10-16T18:46:12.648Z,17.60
2017-10-16T18:48:39.097Z,17.50
2017-10-16T18:51:05.550Z,17.40
2017-10-16T18:53:31.940Z,17.30
2017-10-16T18:55:58.341Z,17.20
2017-10-16T18:58:24.849Z,17.20
2017-10-16T19:00:52.013Z,17.00
2017-10-16T19:03:18.402Z,16.90
2017-10-16T19:05:44.798Z,16.90
2017-10-16T19:08:12.673Z,16.80
2017-10-16T19:10:39.060Z,16.80
2017-10-16T19:13:05.481Z,16.80
2017-10-16T19:15:31.890Z,16.80
2017-10-16T19:17:58.286Z,16.80
2017-10-16T19:20:24.732Z,16.70
2017-10-16T19:22:51.176Z,16.80
2017-10-16T19:25:17.621Z,16.60
2017-10-16T19:27:44.733Z,16.40
2017-10-16T19:30:11.145Z,16.40
2017-10-16T19:32:37.545Z,16.40
2017-10-16T19:35:04.726Z,16.10
2017-10-16T19:37:31.461Z,16.10
2017-10-16T19:39:57.901Z,16.10
2017-10-16T19:42:25.042Z,15.90
2017-10-16T19:44:51.552Z,15.90
2017-10-16T19:47:17.965Z,15.90
2017-10-16T19:49:44.394Z,15.90
2017-10-16T19:52:10.853Z,15.70
2017-10-16T19:54:37.262Z,15.70
2017-10-16T19:57:03.657Z,15.60
2017-10-16T19:59:30.136Z,15.60
2017-10-16T20:01:57.475Z,15.50
2017-10-16T20:04:24.713Z,15.50
2017-10-16T20:06:52.249Z,15.40
2017-10-16T20:09:19.394Z,15.40
2017-10-16T20:11:46.544Z,15.30
2017-10-16T20:14:12.921Z,15.30
2017-10-16T20:16:40.050Z,15.20
2017-10-16T20:19:06.424Z,15.20
2017-10-16T20:21:32.801Z,15.20
2017-10-16T20:23:59.216Z,15.20
2017-10-16T20:26:25.657Z,15.10
2017-10-16T20:28:52.055Z,15.10
2017-10-16T20:31:18.408Z,15.00
2017-10-16T20:33:44.828Z,14.90
2017-10-16T20:36:11.944Z,14.80
2017-10-16T20:38:38.361Z,14.70
2017-10-16T20:41:04.729Z,14.70
2017-10-16T20:43:31.880Z,14.50
2017-10-16T20:45:59.053Z,14.50
2017-10-16T20:48:26.220Z,14.50
2017-10-16T20:50:52.594Z,14.50
2017-10-16T20:53:18.961Z,14.50
2017-10-16T20:55:45.388Z,14.40
2017-10-16T20:58:12.513Z,14.20
2017-10-16T21:00:39.707Z,14.20
2017-10-16T21:03:06.858Z,14.10
2017-10-16T21:05:33.289Z,13.90
2017-10-16T21:07:59.810Z,14.10
2017-10-16T21:10:27.071Z,14.10
2017-10-16T21:12:53.481Z,14.10
2017-10-16T21:15:19.942Z,14.10
2017-10-16T21:17:46.399Z,14.10
2017-10-16T21:20:12.824Z,14.20
2017-10-16T21:22:39.252Z,14.20
2017-10-16T21:25:05.669Z,14.30
2017-10-16T21:27:32.073Z,14.40
2017-10-16T21:29:58.453Z,14.40
2017-10-16T21:32:24.860Z,14.50
2017-10-16T21:34:51.253Z,14.60
2017-10-16T21:37:18.393Z,14.70
2017-10-16T21:39:45.573Z,14.70
2017-10-16T21:42:12.000Z,14.70
2017-10-16T21:44:38.416Z,14.70
2017-10-16T21:47:06.317Z,14.60
2017-10-16T21:49:33.498Z,14.60
2017-10-16T21:52:00.664Z,14.70
2017-10-16T21:54:27.869Z,14.70
2017-10-16T21:56:54.265Z,14.60
2017-10-16T21:59:20.638Z,14.60
2017-10-16T22:01:47.226Z,14.60
2017-10-16T22:04:13.589Z,14.60
2017-10-16T22:06:39.961Z,14.60
2017-10-16T22:09:07.089Z,14.60
2017-10-16T22:11:33.459Z,14.60
2017-10-16T22:14:00.085Z,14.50
2017-10-16T22:16:26.477Z,14.40
2017-10-16T22:18:53.745Z,14.30
2017-10-16T22:21:20.124Z,14.20
2017-10-16T22:23:46.531Z,14.20
2017-10-16T22:26:12.901Z,14.20
2017-10-16T22:28:39.294Z,14.20
2017-10-16T22:31:05.653Z,14.20
2017-10-16T22:33:32.064Z,14.20
2017-10-16T22:35:58.422Z,14.20
2017-10-16T22:38:24.818Z,14.20
2017-10-16T22:40:51.164Z,14.20
2017-10-16T22:43:17.544Z,14.10
2017-10-16T22:45:43.900Z,14.10
2017-10-16T22:48:10.259Z,14.00
2017-10-16T22:50:37.374Z,13.90
2017-10-16T22:53:03.741Z,13.90
2017-10-16T22:55:30.865Z,14.00
2017-10-16T22:57:57.218Z,13.90
2017-10-16T23:00:23.565Z,14.00
2017-10-16T23:02:50.705Z,14.00
2017-10-16T23:05:17.077Z,14.00
2017-10-16T23:07:43.456Z,14.10
2017-10-16T23:10:10.557Z,14.10
2017-10-16T23:12:36.925Z,14.10
2017-10-16T23:15:03.277Z,14.10
2017-10-16T23:17:29.657Z,14.00
2017-10-16T23:19:56.768Z,13.90
2017-10-16T23:22:23.121Z,13.90
2017-10-16T23:24:49.495Z,13.90
2017-10-16T23:27:15.881Z,13.90
2017-10-16T23:29:42.232Z,13.80
2017-10-16T23:32:08.638Z,13.80
2017-10-16T23:34:35.066Z,13.80
2017-10-16T23:37:02.218Z,13.70
2017-10-16T23:39:29.358Z,13.70
2017-10-16T23:41:55.697Z,13.70
2017-10-16T23:44:22.077Z,13.70
2017-10-16T23:46:48.436Z,13.70
2017-10-16T23:49:14.817Z,13.70
2017-10-16T23:51:41.168Z,13.70
2017-10-16T23:54:08.316Z,13.70
2017-10-16T23:56:34.713Z,13.60
2017-10-16T23:59:01.829Z,13.70
